Impacts TAF Board
For situational awareness. Not to be used for flight planning purposes.
IDs:

KALS - Alamosa/Bergman Fld, CO, US

Issued at 1513 UTC 30 Oct 2020
Updated at 1648 UTC 30 Oct 2020
Potential Impact None Slight Moderate High
Time1637Z 30/17Z 30/18Z 30/19Z 30/20Z 30/21Z 30/22Z 30/23Z 31/00Z 31/01Z 31/02Z 31/03Z 31/04Z 31/05Z>>
Type OBS PRVL PRVL PRVL PRVL PRVL PRVL PRVL PRVL PRVL PRVL PRVL PRVL PRVL
VIS 0.25 >6 >6 >6 >6 >6 >6 >6 >6 >6 >6 >6 >6 4
CIG 2 -- -- -- -- -- -- -- -- -- -- -- -- --
Cover OVX FEW SKC SKC SKC SKC SKC SKC SKC SKC SKC SKC SKC FEW
FltCat LIFR VFR VFR VFR VFR VFR VFR VFR VFR VFR VFR VFR VFR MVFR
WX FG -- -- -- -- -- -- -- -- -- -- -- -- BR
WDir 160 VRB 180 180 180 180 180 180 180 180 180 180 180 VRB
WSpd 3 3 6 6 6 6 6 6 6 6 6 6 6 4
WGst -- -- -- -- -- -- -- -- -- -- -- -- -- --
Raw TAF
KALS 301513Z 3015/3112 VRB04KT P6SM SCT002
  FM301600 VRB03KT P6SM FEW010
  FM301800 18006KT P6SM SKC
  FM310500 VRB04KT 4SM BR FEW007


Raw METAR
KALS 301637Z AUTO 16003KT 1/4SM FG VV002 00/00 A3037 RMK AO2 T00000000
KALS 301628Z AUTO 16003KT 1 1/2SM BR BKN002 00/M01 A3037 RMK AO2 VIS 1/2V5 T00001006
KALS 301552Z AUTO 00000KT 7SM BKN002 M01/M02 A3038 RMK AO2 SLP294 T10111017
KALS 301538Z AUTO 00000KT 9SM BKN002 M02/M02 A3039 RMK AO2 T10171017
KALS 301530Z AUTO 00000KT 9SM SCT002 M02/M02 A3039 RMK AO2 T10171017
KALS 301515Z AUTO 00000KT 7SM BKN001 M02/M02 A3038 RMK AO2 T10221022
KALS 301452Z AUTO 00000KT 7SM SCT002 M03/M03 A3038 RMK AO2 SLP300 I1001 I3001 T10331033 53004
KALS 301436Z AUTO 00000KT 6SM BR SCT001 M03/M03 A3037 RMK AO2 I1001 T10331033
KALS 301427Z AUTO 00000KT 2SM BR BKN001 M04/M04 A3037 RMK AO2 VIS 1 1/4V3 I1001 T10391039
KALS 301415Z AUTO 00000KT 4SM BR OVC001 M04/M04 A3037 RMK AO2 I1000 T10391044
KALS 301403Z AUTO 00000KT 2SM BR OVC001 M04/M05 A3037 RMK AO2 T10441050
KALS 301352Z AUTO 22003KT 1SM BR VV001 M05/M06 A3037 RMK AO2 SLP301 T10501056

METAR Board
Radar Display
Forecast Discussion
For situational awareness. Not to be used for flight planning purposes.